sensor_id;sensor_type;location;lat;lon;timestamp;P1;durP1;ratioP1;P2;durP2;ratioP2
14251;SDS011;7210;51.502;10.722;2022-11-13T00:01:28;14.50;;;11.30;;
14251;SDS011;7210;51.502;10.722;2022-11-13T00:04:13;14.80;;;11.40;;
14251;SDS011;7210;51.502;10.722;2022-11-13T00:06:59;18.20;;;11.27;;
14251;SDS011;7210;51.502;10.722;2022-11-13T00:10:02;16.13;;;11.27;;
14251;SDS011;7210;51.502;10.722;2022-11-13T00:12:56;15.27;;;11.17;;
14251;SDS011;7210;51.502;10.722;2022-11-13T00:15:44;17.70;;;12.43;;
14251;SDS011;7210;51.502;10.722;2022-11-13T00:18:46;17.53;;;11.83;;
14251;SDS011;7210;51.502;10.722;2022-11-13T00:21:38;14.13;;;10.47;;
14251;SDS011;7210;51.502;10.722;2022-11-13T00:24:26;13.90;;;11.20;;
14251;SDS011;7210;51.502;10.722;2022-11-13T00:27:12;14.17;;;10.87;;
14251;SDS011;7210;51.502;10.722;2022-11-13T00:29:58;13.93;;;10.43;;
14251;SDS011;7210;51.502;10.722;2022-11-13T00:32:56;12.23;;;10.10;;
14251;SDS011;7210;51.502;10.722;2022-11-13T00:35:44;13.70;;;10.23;;
14251;SDS011;7210;51.502;10.722;2022-11-13T00:41:36;13.30;;;10.80;;
14251;SDS011;7210;51.502;10.722;2022-11-13T00:44:26;15.07;;;11.17;;
14251;SDS011;7210;51.502;10.722;2022-11-13T00:47:14;14.20;;;10.90;;
14251;SDS011;7210;51.502;10.722;2022-11-13T00:50:14;13.70;;;10.37;;
14251;SDS011;7210;51.502;10.722;2022-11-13T00:53:04;14.00;;;11.03;;
14251;SDS011;7210;51.502;10.722;2022-11-13T01:05:12;15.33;;;10.37;;
14251;SDS011;7210;51.502;10.722;2022-11-13T01:07:58;13.33;;;10.37;;
14251;SDS011;7210;51.502;10.722;2022-11-13T01:10:46;14.07;;;10.90;;
14251;SDS011;7210;51.502;10.722;2022-11-13T01:13:45;13.10;;;10.73;;
14251;SDS011;7210;51.502;10.722;2022-11-13T01:16:44;11.87;;;9.80;;
14251;SDS011;7210;51.502;10.722;2022-11-13T01:19:30;12.50;;;10.07;;
14251;SDS011;7210;51.502;10.722;2022-11-13T01:22:20;11.33;;;9.87;;
14251;SDS011;7210;51.502;10.722;2022-11-13T01:25:06;13.00;;;10.43;;
14251;SDS011;7210;51.502;10.722;2022-11-13T01:27:54;12.47;;;8.93;;
14251;SDS011;7210;51.502;10.722;2022-11-13T01:30:40;15.43;;;10.30;;
14251;SDS011;7210;51.502;10.722;2022-11-13T01:33:26;12.77;;;10.37;;
14251;SDS011;7210;51.502;10.722;2022-11-13T01:36:13;11.77;;;9.80;;
14251;SDS011;7210;51.502;10.722;2022-11-13T01:42:35;13.00;;;9.90;;
14251;SDS011;7210;51.502;10.722;2022-11-13T01:49:19;12.03;;;9.57;;
14251;SDS011;7210;51.502;10.722;2022-11-13T01:52:27;12.53;;;10.63;;
14251;SDS011;7210;51.502;10.722;2022-11-13T01:58:24;12.73;;;9.83;;
14251;SDS011;7210;51.502;10.722;2022-11-13T02:01:11;12.70;;;10.10;;
14251;SDS011;7210;51.502;10.722;2022-11-13T02:04:02;14.13;;;10.97;;
14251;SDS011;7210;51.502;10.722;2022-11-13T02:06:51;14.43;;;10.73;;
14251;SDS011;7210;51.502;10.722;2022-11-13T02:09:43;12.30;;;9.97;;
14251;SDS011;7210;51.502;10.722;2022-11-13T02:12:32;14.77;;;10.20;;
14251;SDS011;7210;51.502;10.722;2022-11-13T02:18:31;11.67;;;9.53;;
14251;SDS011;7210;51.502;10.722;2022-11-13T02:21:34;13.83;;;10.70;;
14251;SDS011;7210;51.502;10.722;2022-11-13T02:27:46;11.00;;;9.43;;
14251;SDS011;7210;51.502;10.722;2022-11-13T02:30:34;11.50;;;9.07;;
14251;SDS011;7210;51.502;10.722;2022-11-13T02:33:22;12.27;;;9.40;;
14251;SDS011;7210;51.502;10.722;2022-11-13T02:36:14;10.73;;;9.03;;
14251;SDS011;7210;51.502;10.722;2022-11-13T02:39:06;11.87;;;9.10;;
14251;SDS011;7210;51.502;10.722;2022-11-13T02:42:04;10.30;;;8.60;;
14251;SDS011;7210;51.502;10.722;2022-11-13T02:44:50;12.60;;;9.57;;
14251;SDS011;7210;51.502;10.722;2022-11-13T02:47:50;12.63;;;9.00;;
14251;SDS011;7210;51.502;10.722;2022-11-13T02:50:36;12.00;;;8.60;;
14251;SDS011;7210;51.502;10.722;2022-11-13T02:57:31;12.77;;;9.23;;
14251;SDS011;7210;51.502;10.722;2022-11-13T03:00:17;12.10;;;8.77;;
14251;SDS011;7210;51.502;10.722;2022-11-13T03:03:03;11.37;;;9.50;;
14251;SDS011;7210;51.502;10.722;2022-11-13T03:05:50;11.97;;;8.73;;
14251;SDS011;7210;51.502;10.722;2022-11-13T03:08:38;10.47;;;8.93;;
14251;SDS011;7210;51.502;10.722;2022-11-13T03:11:26;11.87;;;8.93;;
14251;SDS011;7210;51.502;10.722;2022-11-13T03:14:16;11.10;;;9.07;;
14251;SDS011;7210;51.502;10.722;2022-11-13T03:17:02;12.33;;;9.47;;
14251;SDS011;7210;51.502;10.722;2022-11-13T03:19:48;10.90;;;8.53;;
14251;SDS011;7210;51.502;10.722;2022-11-13T03:22:34;10.50;;;8.43;;
14251;SDS011;7210;51.502;10.722;2022-11-13T03:25:20;11.53;;;8.50;;
14251;SDS011;7210;51.502;10.722;2022-11-13T03:34:19;10.67;;;7.93;;
14251;SDS011;7210;51.502;10.722;2022-11-13T03:37:05;11.10;;;9.00;;
14251;SDS011;7210;51.502;10.722;2022-11-13T03:39:51;11.63;;;9.00;;
14251;SDS011;7210;51.502;10.722;2022-11-13T03:42:37;13.17;;;8.80;;
14251;SDS011;7210;51.502;10.722;2022-11-13T03:45:22;8.93;;;7.90;;
14251;SDS011;7210;51.502;10.722;2022-11-13T03:48:09;9.77;;;7.67;;
14251;SDS011;7210;51.502;10.722;2022-11-13T03:50:56;8.93;;;8.03;;
14251;SDS011;7210;51.502;10.722;2022-11-13T03:53:50;12.23;;;7.90;;
14251;SDS011;7210;51.502;10.722;2022-11-13T03:56:38;10.70;;;8.30;;
14251;SDS011;7210;51.502;10.722;2022-11-13T03:59:26;10.63;;;8.43;;
14251;SDS011;7210;51.502;10.722;2022-11-13T04:02:14;10.43;;;8.13;;
14251;SDS011;7210;51.502;10.722;2022-11-13T04:05:02;10.40;;;7.97;;
14251;SDS011;7210;51.502;10.722;2022-11-13T04:07:49;10.30;;;8.20;;
14251;SDS011;7210;51.502;10.722;2022-11-13T04:10:35;10.13;;;8.67;;
14251;SDS011;7210;51.502;10.722;2022-11-13T04:13:26;11.97;;;7.80;;
14251;SDS011;7210;51.502;10.722;2022-11-13T04:16:14;12.13;;;8.43;;
14251;SDS011;7210;51.502;10.722;2022-11-13T04:19:00;12.87;;;9.03;;
14251;SDS011;7210;51.502;10.722;2022-11-13T04:21:48;10.47;;;7.90;;
14251;SDS011;7210;51.502;10.722;2022-11-13T04:24:33;10.73;;;8.93;;
14251;SDS011;7210;51.502;10.722;2022-11-13T04:27:20;12.53;;;9.40;;
14251;SDS011;7210;51.502;10.722;2022-11-13T04:30:07;12.67;;;9.00;;
14251;SDS011;7210;51.502;10.722;2022-11-13T04:32:56;11.03;;;8.13;;
14251;SDS011;7210;51.502;10.722;2022-11-13T04:35:44;8.67;;;7.60;;
14251;SDS011;7210;51.502;10.722;2022-11-13T04:41:37;10.30;;;8.43;;
14251;SDS011;7210;51.502;10.722;2022-11-13T04:44:50;13.07;;;9.37;;
14251;SDS011;7210;51.502;10.722;2022-11-13T04:47:38;12.87;;;8.47;;
14251;SDS011;7210;51.502;10.722;2022-11-13T04:50:24;10.83;;;8.70;;
14251;SDS011;7210;51.502;10.722;2022-11-13T04:53:10;9.13;;;7.83;;
14251;SDS011;7210;51.502;10.722;2022-11-13T04:55:57;10.33;;;8.00;;
14251;SDS011;7210;51.502;10.722;2022-11-13T04:58:43;10.60;;;8.63;;
14251;SDS011;7210;51.502;10.722;2022-11-13T05:01:29;11.07;;;7.97;;
14251;SDS011;7210;51.502;10.722;2022-11-13T05:04:32;9.40;;;7.83;;
14251;SDS011;7210;51.502;10.722;2022-11-13T05:07:18;9.27;;;7.27;;
14251;SDS011;7210;51.502;10.722;2022-11-13T05:10:08;12.13;;;8.77;;
14251;SDS011;7210;51.502;10.722;2022-11-13T05:12:56;10.23;;;7.83;;
14251;SDS011;7210;51.502;10.722;2022-11-13T05:19:14;10.43;;;7.37;;
14251;SDS011;7210;51.502;10.722;2022-11-13T05:22:00;11.53;;;7.37;;
14251;SDS011;7210;51.502;10.722;2022-11-13T05:24:56;10.63;;;7.10;;
14251;SDS011;7210;51.502;10.722;2022-11-13T05:34:26;8.03;;;7.23;;
14251;SDS011;7210;51.502;10.722;2022-11-13T05:37:12;9.03;;;7.43;;
14251;SDS011;7210;51.502;10.722;2022-11-13T05:40:14;10.00;;;7.37;;
14251;SDS011;7210;51.502;10.722;2022-11-13T05:43:16;9.57;;;7.87;;
14251;SDS011;7210;51.502;10.722;2022-11-13T05:46:02;9.07;;;7.50;;
14251;SDS011;7210;51.502;10.722;2022-11-13T05:48:51;9.40;;;7.33;;
14251;SDS011;7210;51.502;10.722;2022-11-13T05:51:44;9.50;;;7.70;;
14251;SDS011;7210;51.502;10.722;2022-11-13T05:57:30;10.53;;;7.70;;
14251;SDS011;7210;51.502;10.722;2022-11-13T06:00:22;11.47;;;7.60;;
14251;SDS011;7210;51.502;10.722;2022-11-13T06:03:08;9.03;;;7.00;;
14251;SDS011;7210;51.502;10.722;2022-11-13T06:05:53;11.80;;;7.47;;
14251;SDS011;7210;51.502;10.722;2022-11-13T06:08:39;10.50;;;8.23;;
14251;SDS011;7210;51.502;10.722;2022-11-13T06:11:26;9.33;;;7.50;;
14251;SDS011;7210;51.502;10.722;2022-11-13T06:14:14;12.03;;;7.43;;
14251;SDS011;7210;51.502;10.722;2022-11-13T06:17:01;11.17;;;7.40;;
14251;SDS011;7210;51.502;10.722;2022-11-13T06:19:47;10.20;;;8.07;;
14251;SDS011;7210;51.502;10.722;2022-11-13T06:22:38;9.30;;;7.80;;
14251;SDS011;7210;51.502;10.722;2022-11-13T06:25:24;9.57;;;7.87;;
14251;SDS011;7210;51.502;10.722;2022-11-13T06:28:11;9.97;;;7.57;;
14251;SDS011;7210;51.502;10.722;2022-11-13T06:34:30;12.17;;;8.27;;
14251;SDS011;7210;51.502;10.722;2022-11-13T06:37:20;10.20;;;7.90;;
14251;SDS011;7210;51.502;10.722;2022-11-13T06:40:26;10.63;;;7.57;;
14251;SDS011;7210;51.502;10.722;2022-11-13T06:43:20;9.60;;;7.47;;
14251;SDS011;7210;51.502;10.722;2022-11-13T06:46:11;10.40;;;7.27;;
14251;SDS011;7210;51.502;10.722;2022-11-13T06:49:02;9.27;;;7.17;;
14251;SDS011;7210;51.502;10.722;2022-11-13T06:51:50;9.23;;;7.17;;
14251;SDS011;7210;51.502;10.722;2022-11-13T06:54:38;9.20;;;6.90;;
14251;SDS011;7210;51.502;10.722;2022-11-13T06:57:24;8.30;;;6.40;;
14251;SDS011;7210;51.502;10.722;2022-11-13T07:00:11;7.43;;;6.27;;
14251;SDS011;7210;51.502;10.722;2022-11-13T07:03:15;11.10;;;6.80;;
14251;SDS011;7210;51.502;10.722;2022-11-13T07:06:10;9.20;;;6.77;;
14251;SDS011;7210;51.502;10.722;2022-11-13T07:09:00;9.23;;;7.00;;
14251;SDS011;7210;51.502;10.722;2022-11-13T07:11:56;16.03;;;11.90;;
14251;SDS011;7210;51.502;10.722;2022-11-13T07:14:44;10.37;;;7.80;;
14251;SDS011;7210;51.502;10.722;2022-11-13T07:17:30;11.90;;;7.83;;
14251;SDS011;7210;51.502;10.722;2022-11-13T07:20:26;8.53;;;6.73;;
14251;SDS011;7210;51.502;10.722;2022-11-13T07:23:12;9.77;;;7.07;;
14251;SDS011;7210;51.502;10.722;2022-11-13T07:25:59;11.13;;;8.43;;
14251;SDS011;7210;51.502;10.722;2022-11-13T07:28:45;9.80;;;7.67;;
14251;SDS011;7210;51.502;10.722;2022-11-13T07:31:38;12.43;;;9.57;;
14251;SDS011;7210;51.502;10.722;2022-11-13T07:34:25;9.73;;;8.33;;
14251;SDS011;7210;51.502;10.722;2022-11-13T07:37:14;9.27;;;8.00;;
14251;SDS011;7210;51.502;10.722;2022-11-13T07:40:00;12.10;;;9.87;;
14251;SDS011;7210;51.502;10.722;2022-11-13T07:42:54;13.43;;;10.67;;
14251;SDS011;7210;51.502;10.722;2022-11-13T07:45:42;13.57;;;9.97;;
14251;SDS011;7210;51.502;10.722;2022-11-13T07:51:44;12.00;;;8.20;;
14251;SDS011;7210;51.502;10.722;2022-11-13T07:54:44;10.23;;;8.00;;
14251;SDS011;7210;51.502;10.722;2022-11-13T08:00:44;9.83;;;6.90;;
14251;SDS011;7210;51.502;10.722;2022-11-13T08:03:30;24.10;;;9.87;;
14251;SDS011;7210;51.502;10.722;2022-11-13T08:06:16;11.40;;;7.63;;
14251;SDS011;7210;51.502;10.722;2022-11-13T08:09:02;14.10;;;10.10;;
14251;SDS011;7210;51.502;10.722;2022-11-13T08:11:49;11.70;;;10.10;;
14251;SDS011;7210;51.502;10.722;2022-11-13T08:14:40;14.77;;;10.97;;
14251;SDS011;7210;51.502;10.722;2022-11-13T08:17:26;12.53;;;8.53;;
14251;SDS011;7210;51.502;10.722;2022-11-13T08:20:12;11.70;;;9.10;;
14251;SDS011;7210;51.502;10.722;2022-11-13T08:23:03;12.37;;;8.47;;
14251;SDS011;7210;51.502;10.722;2022-11-13T08:25:49;10.90;;;8.80;;
14251;SDS011;7210;51.502;10.722;2022-11-13T08:28:38;10.40;;;7.47;;
14251;SDS011;7210;51.502;10.722;2022-11-13T08:31:26;10.73;;;7.57;;
14251;SDS011;7210;51.502;10.722;2022-11-13T08:34:12;10.83;;;6.90;;
14251;SDS011;7210;51.502;10.722;2022-11-13T08:36:58;9.83;;;6.60;;
14251;SDS011;7210;51.502;10.722;2022-11-13T08:39:43;8.93;;;6.43;;
14251;SDS011;7210;51.502;10.722;2022-11-13T08:42:38;7.87;;;6.50;;
14251;SDS011;7210;51.502;10.722;2022-11-13T08:45:24;8.13;;;6.50;;
14251;SDS011;7210;51.502;10.722;2022-11-13T08:48:16;6.70;;;5.70;;
14251;SDS011;7210;51.502;10.722;2022-11-13T08:51:02;9.07;;;6.20;;
14251;SDS011;7210;51.502;10.722;2022-11-13T08:53:50;6.10;;;5.50;;
14251;SDS011;7210;51.502;10.722;2022-11-13T08:56:35;6.90;;;5.83;;
14251;SDS011;7210;51.502;10.722;2022-11-13T08:59:22;8.30;;;6.30;;
14251;SDS011;7210;51.502;10.722;2022-11-13T09:02:09;7.60;;;6.73;;
14251;SDS011;7210;51.502;10.722;2022-11-13T09:05:00;9.77;;;6.80;;
14251;SDS011;7210;51.502;10.722;2022-11-13T09:07:48;8.27;;;7.13;;
14251;SDS011;7210;51.502;10.722;2022-11-13T09:10:44;8.27;;;7.03;;
14251;SDS011;7210;51.502;10.722;2022-11-13T09:13:32;10.43;;;8.57;;
14251;SDS011;7210;51.502;10.722;2022-11-13T09:16:20;8.47;;;7.53;;
14251;SDS011;7210;51.502;10.722;2022-11-13T09:19:14;10.23;;;7.30;;
14251;SDS011;7210;51.502;10.722;2022-11-13T09:22:02;12.10;;;7.17;;
14251;SDS011;7210;51.502;10.722;2022-11-13T09:24:50;9.33;;;7.10;;
14251;SDS011;7210;51.502;10.722;2022-11-13T09:27:38;12.17;;;8.30;;
14251;SDS011;7210;51.502;10.722;2022-11-13T09:30:25;8.97;;;7.83;;
14251;SDS011;7210;51.502;10.722;2022-11-13T09:33:13;8.70;;;7.80;;
14251;SDS011;7210;51.502;10.722;2022-11-13T09:36:08;8.67;;;7.77;;
14251;SDS011;7210;51.502;10.722;2022-11-13T09:38:58;8.77;;;7.77;;
14251;SDS011;7210;51.502;10.722;2022-11-13T09:41:46;9.70;;;8.60;;
14251;SDS011;7210;51.502;10.722;2022-11-13T09:44:39;9.83;;;8.80;;
14251;SDS011;7210;51.502;10.722;2022-11-13T09:47:32;9.77;;;8.47;;
14251;SDS011;7210;51.502;10.722;2022-11-13T09:50:32;13.30;;;10.00;;
14251;SDS011;7210;51.502;10.722;2022-11-13T09:53:18;24.43;;;14.60;;
14251;SDS011;7210;51.502;10.722;2022-11-13T09:56:17;15.93;;;11.97;;
14251;SDS011;7210;51.502;10.722;2022-11-13T09:59:13;23.97;;;19.23;;
14251;SDS011;7210;51.502;10.722;2022-11-13T10:02:11;13.77;;;11.63;;
14251;SDS011;7210;51.502;10.722;2022-11-13T10:05:19;38.87;;;28.13;;
14251;SDS011;7210;51.502;10.722;2022-11-13T10:08:12;13.07;;;11.43;;
14251;SDS011;7210;51.502;10.722;2022-11-13T10:11:05;12.00;;;10.70;;
14251;SDS011;7210;51.502;10.722;2022-11-13T10:17:21;38.07;;;14.27;;
14251;SDS011;7210;51.502;10.722;2022-11-13T10:20:17;17.33;;;11.27;;
14251;SDS011;7210;51.502;10.722;2022-11-13T10:23:10;12.00;;;10.57;;
14251;SDS011;7210;51.502;10.722;2022-11-13T10:26:15;16.03;;;10.60;;
14251;SDS011;7210;51.502;10.722;2022-11-13T10:29:05;73.13;;;18.43;;
14251;SDS011;7210;51.502;10.722;2022-11-13T10:31:57;32.23;;;15.33;;
14251;SDS011;7210;51.502;10.722;2022-11-13T10:34:45;23.10;;;13.13;;
14251;SDS011;7210;51.502;10.722;2022-11-13T10:37:47;15.13;;;11.70;;
14251;SDS011;7210;51.502;10.722;2022-11-13T10:40:45;19.87;;;15.97;;
14251;SDS011;7210;51.502;10.722;2022-11-13T10:43:30;21.60;;;13.70;;
14251;SDS011;7210;51.502;10.722;2022-11-13T10:46:21;14.50;;;12.07;;
14251;SDS011;7210;51.502;10.722;2022-11-13T10:49:11;16.83;;;12.20;;
14251;SDS011;7210;51.502;10.722;2022-11-13T10:52:02;14.93;;;12.20;;
14251;SDS011;7210;51.502;10.722;2022-11-13T10:55:11;15.70;;;12.33;;
14251;SDS011;7210;51.502;10.722;2022-11-13T10:58:11;17.43;;;13.37;;
14251;SDS011;7210;51.502;10.722;2022-11-13T11:00:59;13.57;;;12.17;;
14251;SDS011;7210;51.502;10.722;2022-11-13T11:03:48;13.47;;;12.07;;
14251;SDS011;7210;51.502;10.722;2022-11-13T11:06:37;14.10;;;12.57;;
14251;SDS011;7210;51.502;10.722;2022-11-13T11:09:25;15.17;;;13.57;;
14251;SDS011;7210;51.502;10.722;2022-11-13T11:12:21;13.73;;;12.30;;
14251;SDS011;7210;51.502;10.722;2022-11-13T11:18:27;15.07;;;13.47;;
14251;SDS011;7210;51.502;10.722;2022-11-13T11:21:24;16.10;;;13.63;;
14251;SDS011;7210;51.502;10.722;2022-11-13T11:24:17;17.67;;;14.33;;
14251;SDS011;7210;51.502;10.722;2022-11-13T11:27:12;15.27;;;13.67;;
14251;SDS011;7210;51.502;10.722;2022-11-13T11:30:07;17.47;;;14.67;;
14251;SDS011;7210;51.502;10.722;2022-11-13T11:33:05;16.20;;;12.83;;
14251;SDS011;7210;51.502;10.722;2022-11-13T11:36:02;13.17;;;11.87;;
14251;SDS011;7210;51.502;10.722;2022-11-13T11:39:04;12.97;;;11.10;;
14251;SDS011;7210;51.502;10.722;2022-11-13T11:42:18;13.90;;;11.37;;
14251;SDS011;7210;51.502;10.722;2022-11-13T11:45:13;12.03;;;10.83;;
14251;SDS011;7210;51.502;10.722;2022-11-13T11:48:08;12.90;;;11.60;;
14251;SDS011;7210;51.502;10.722;2022-11-13T11:51:05;13.83;;;12.53;;
14251;SDS011;7210;51.502;10.722;2022-11-13T11:54:03;13.53;;;12.20;;
14251;SDS011;7210;51.502;10.722;2022-11-13T11:57:04;16.60;;;13.00;;
14251;SDS011;7210;51.502;10.722;2022-11-13T12:00:03;16.03;;;14.43;;
14251;SDS011;7210;51.502;10.722;2022-11-13T12:02:59;17.00;;;15.40;;
14251;SDS011;7210;51.502;10.722;2022-11-13T12:06:30;17.47;;;15.83;;
14251;SDS011;7210;51.502;10.722;2022-11-13T12:09:46;18.63;;;16.83;;
14251;SDS011;7210;51.502;10.722;2022-11-13T12:12:49;61.97;;;20.37;;
14251;SDS011;7210;51.502;10.722;2022-11-13T12:15:51;23.20;;;17.23;;
14251;SDS011;7210;51.502;10.722;2022-11-13T12:18:52;19.73;;;17.63;;
14251;SDS011;7210;51.502;10.722;2022-11-13T12:21:50;20.43;;;18.33;;
14251;SDS011;7210;51.502;10.722;2022-11-13T12:24:55;22.30;;;20.10;;
14251;SDS011;7210;51.502;10.722;2022-11-13T12:28:08;24.77;;;22.07;;
14251;SDS011;7210;51.502;10.722;2022-11-13T12:31:04;23.20;;;20.53;;
14251;SDS011;7210;51.502;10.722;2022-11-13T12:34:27;24.97;;;22.30;;
14251;SDS011;7210;51.502;10.722;2022-11-13T12:37:20;25.47;;;21.63;;
14251;SDS011;7210;51.502;10.722;2022-11-13T12:40:23;25.70;;;23.00;;
14251;SDS011;7210;51.502;10.722;2022-11-13T12:43:27;26.93;;;23.00;;
14251;SDS011;7210;51.502;10.722;2022-11-13T12:46:31;29.37;;;24.37;;
14251;SDS011;7210;51.502;10.722;2022-11-13T12:49:28;26.77;;;23.67;;
14251;SDS011;7210;51.502;10.722;2022-11-13T12:52:19;29.43;;;24.83;;
14251;SDS011;7210;51.502;10.722;2022-11-13T12:55:33;26.07;;;23.17;;
14251;SDS011;7210;51.502;10.722;2022-11-13T12:58:24;31.43;;;24.70;;
14251;SDS011;7210;51.502;10.722;2022-11-13T13:01:15;22.53;;;20.03;;
14251;SDS011;7210;51.502;10.722;2022-11-13T13:07:51;27.80;;;22.93;;
14251;SDS011;7210;51.502;10.722;2022-11-13T13:11:22;27.10;;;24.20;;
14251;SDS011;7210;51.502;10.722;2022-11-13T13:14:28;28.37;;;25.07;;
14251;SDS011;7210;51.502;10.722;2022-11-13T13:18:00;27.53;;;23.87;;
14251;SDS011;7210;51.502;10.722;2022-11-13T13:21:01;28.67;;;24.17;;
14251;SDS011;7210;51.502;10.722;2022-11-13T13:23:52;30.20;;;25.67;;
14251;SDS011;7210;51.502;10.722;2022-11-13T13:26:43;33.17;;;26.23;;
14251;SDS011;7210;51.502;10.722;2022-11-13T13:29:40;32.47;;;26.77;;
14251;SDS011;7210;51.502;10.722;2022-11-13T13:32:27;33.10;;;26.13;;
14251;SDS011;7210;51.502;10.722;2022-11-13T13:35:28;28.93;;;25.73;;
14251;SDS011;7210;51.502;10.722;2022-11-13T13:38:24;31.30;;;26.00;;
14251;SDS011;7210;51.502;10.722;2022-11-13T13:41:29;34.43;;;28.07;;
14251;SDS011;7210;51.502;10.722;2022-11-13T13:44:35;206.93;;;43.45;;
14251;SDS011;7210;51.502;10.722;2022-11-13T13:47:41;205.70;;;41.00;;
14251;SDS011;7210;51.502;10.722;2022-11-13T13:50:31;83.97;;;30.60;;
14251;SDS011;7210;51.502;10.722;2022-11-13T13:53:28;36.70;;;28.00;;
14251;SDS011;7210;51.502;10.722;2022-11-13T13:56:18;31.77;;;24.77;;
14251;SDS011;7210;51.502;10.722;2022-11-13T13:59:11;29.87;;;24.83;;
14251;SDS011;7210;51.502;10.722;2022-11-13T14:02:03;30.93;;;23.90;;
14251;SDS011;7210;51.502;10.722;2022-11-13T14:04:59;110.53;;;59.07;;
14251;SDS011;7210;51.502;10.722;2022-11-13T14:07:50;51.70;;;34.87;;
14251;SDS011;7210;51.502;10.722;2022-11-13T14:10:36;40.43;;;31.20;;
14251;SDS011;7210;51.502;10.722;2022-11-13T14:13:23;35.80;;;27.83;;
14251;SDS011;7210;51.502;10.722;2022-11-13T14:16:14;37.63;;;27.60;;
14251;SDS011;7210;51.502;10.722;2022-11-13T14:19:05;38.70;;;29.53;;
14251;SDS011;7210;51.502;10.722;2022-11-13T14:21:52;35.17;;;27.63;;
14251;SDS011;7210;51.502;10.722;2022-11-13T14:24:43;36.60;;;27.27;;
14251;SDS011;7210;51.502;10.722;2022-11-13T14:27:33;39.13;;;31.50;;
14251;SDS011;7210;51.502;10.722;2022-11-13T14:30:21;33.87;;;26.27;;
14251;SDS011;7210;51.502;10.722;2022-11-13T14:33:15;32.07;;;23.93;;
14251;SDS011;7210;51.502;10.722;2022-11-13T14:36:08;30.23;;;23.83;;
14251;SDS011;7210;51.502;10.722;2022-11-13T14:38:56;32.00;;;23.27;;
14251;SDS011;7210;51.502;10.722;2022-11-13T14:41:45;32.33;;;25.13;;
14251;SDS011;7210;51.502;10.722;2022-11-13T14:44:38;32.07;;;24.43;;
14251;SDS011;7210;51.502;10.722;2022-11-13T14:47:27;36.07;;;23.47;;
14251;SDS011;7210;51.502;10.722;2022-11-13T14:50:20;32.37;;;24.40;;
14251;SDS011;7210;51.502;10.722;2022-11-13T14:53:24;32.03;;;23.77;;
14251;SDS011;7210;51.502;10.722;2022-11-13T14:56:12;37.10;;;25.40;;
14251;SDS011;7210;51.502;10.722;2022-11-13T14:59:09;35.47;;;25.97;;
14251;SDS011;7210;51.502;10.722;2022-11-13T15:02:09;34.23;;;25.00;;
14251;SDS011;7210;51.502;10.722;2022-11-13T15:04:56;35.03;;;24.70;;
14251;SDS011;7210;51.502;10.722;2022-11-13T15:07:44;32.87;;;24.33;;
14251;SDS011;7210;51.502;10.722;2022-11-13T15:10:32;35.00;;;24.70;;
14251;SDS011;7210;51.502;10.722;2022-11-13T15:13:18;32.97;;;24.43;;
14251;SDS011;7210;51.502;10.722;2022-11-13T15:16:04;33.07;;;22.93;;
14251;SDS011;7210;51.502;10.722;2022-11-13T15:18:52;33.07;;;22.00;;
14251;SDS011;7210;51.502;10.722;2022-11-13T15:21:45;32.30;;;22.27;;
14251;SDS011;7210;51.502;10.722;2022-11-13T15:24:32;34.00;;;22.53;;
14251;SDS011;7210;51.502;10.722;2022-11-13T15:27:22;31.97;;;22.60;;
14251;SDS011;7210;51.502;10.722;2022-11-13T15:30:14;31.83;;;23.37;;
14251;SDS011;7210;51.502;10.722;2022-11-13T15:33:01;36.93;;;23.33;;
14251;SDS011;7210;51.502;10.722;2022-11-13T15:35:57;36.03;;;22.33;;
14251;SDS011;7210;51.502;10.722;2022-11-13T15:38:42;38.73;;;23.47;;
14251;SDS011;7210;51.502;10.722;2022-11-13T15:41:32;32.57;;;22.43;;
14251;SDS011;7210;51.502;10.722;2022-11-13T15:44:22;31.17;;;22.50;;
14251;SDS011;7210;51.502;10.722;2022-11-13T15:47:17;37.63;;;24.63;;
14251;SDS011;7210;51.502;10.722;2022-11-13T15:50:11;33.93;;;23.23;;
14251;SDS011;7210;51.502;10.722;2022-11-13T15:52:57;36.30;;;24.87;;
14251;SDS011;7210;51.502;10.722;2022-11-13T15:55:44;36.27;;;23.40;;
14251;SDS011;7210;51.502;10.722;2022-11-13T15:58:30;42.63;;;26.50;;
14251;SDS011;7210;51.502;10.722;2022-11-13T16:01:17;38.80;;;27.63;;
14251;SDS011;7210;51.502;10.722;2022-11-13T16:04:04;36.77;;;24.87;;
14251;SDS011;7210;51.502;10.722;2022-11-13T16:06:50;36.57;;;25.00;;
14251;SDS011;7210;51.502;10.722;2022-11-13T16:09:37;35.73;;;25.40;;
14251;SDS011;7210;51.502;10.722;2022-11-13T16:12:26;33.43;;;23.40;;
14251;SDS011;7210;51.502;10.722;2022-11-13T16:15:12;37.47;;;24.30;;
14251;SDS011;7210;51.502;10.722;2022-11-13T16:18:04;39.97;;;27.10;;
14251;SDS011;7210;51.502;10.722;2022-11-13T16:21:08;36.90;;;25.67;;
14251;SDS011;7210;51.502;10.722;2022-11-13T16:23:57;32.13;;;23.23;;
14251;SDS011;7210;51.502;10.722;2022-11-13T16:26:46;32.93;;;22.77;;
14251;SDS011;7210;51.502;10.722;2022-11-13T16:29:38;34.80;;;22.97;;
14251;SDS011;7210;51.502;10.722;2022-11-13T16:32:24;30.20;;;22.57;;
14251;SDS011;7210;51.502;10.722;2022-11-13T16:35:12;32.07;;;22.97;;
14251;SDS011;7210;51.502;10.722;2022-11-13T16:38:03;29.63;;;22.07;;
14251;SDS011;7210;51.502;10.722;2022-11-13T16:40:56;38.50;;;26.13;;
14251;SDS011;7210;51.502;10.722;2022-11-13T16:43:43;33.30;;;22.80;;
14251;SDS011;7210;51.502;10.722;2022-11-13T16:46:39;33.23;;;22.70;;
14251;SDS011;7210;51.502;10.722;2022-11-13T16:49:32;30.67;;;21.60;;
14251;SDS011;7210;51.502;10.722;2022-11-13T16:52:20;32.90;;;22.23;;
14251;SDS011;7210;51.502;10.722;2022-11-13T16:55:09;34.63;;;22.60;;
14251;SDS011;7210;51.502;10.722;2022-11-13T16:57:55;34.70;;;23.00;;
14251;SDS011;7210;51.502;10.722;2022-11-13T17:00:41;35.00;;;22.33;;
14251;SDS011;7210;51.502;10.722;2022-11-13T17:03:27;36.43;;;22.97;;
14251;SDS011;7210;51.502;10.722;2022-11-13T17:06:18;35.60;;;21.83;;
14251;SDS011;7210;51.502;10.722;2022-11-13T17:09:08;30.97;;;21.77;;
14251;SDS011;7210;51.502;10.722;2022-11-13T17:11:55;34.70;;;23.43;;
14251;SDS011;7210;51.502;10.722;2022-11-13T17:14:50;35.43;;;22.80;;
14251;SDS011;7210;51.502;10.722;2022-11-13T17:17:36;38.87;;;24.63;;
14251;SDS011;7210;51.502;10.722;2022-11-13T17:20:22;39.97;;;25.40;;
14251;SDS011;7210;51.502;10.722;2022-11-13T17:23:10;38.40;;;25.27;;
14251;SDS011;7210;51.502;10.722;2022-11-13T17:26:04;38.90;;;26.97;;
14251;SDS011;7210;51.502;10.722;2022-11-13T17:28:50;40.57;;;25.63;;
14251;SDS011;7210;51.502;10.722;2022-11-13T17:31:38;48.07;;;30.80;;
14251;SDS011;7210;51.502;10.722;2022-11-13T17:34:24;45.70;;;29.83;;
14251;SDS011;7210;51.502;10.722;2022-11-13T17:37:14;40.77;;;26.90;;
14251;SDS011;7210;51.502;10.722;2022-11-13T17:40:00;41.90;;;25.83;;
14251;SDS011;7210;51.502;10.722;2022-11-13T17:42:47;41.77;;;26.27;;
14251;SDS011;7210;51.502;10.722;2022-11-13T17:45:34;38.97;;;25.87;;
14251;SDS011;7210;51.502;10.722;2022-11-13T17:48:33;37.63;;;25.17;;
14251;SDS011;7210;51.502;10.722;2022-11-13T17:51:19;41.30;;;26.03;;
14251;SDS011;7210;51.502;10.722;2022-11-13T17:54:05;38.53;;;24.93;;
14251;SDS011;7210;51.502;10.722;2022-11-13T17:57:08;42.43;;;25.37;;
14251;SDS011;7210;51.502;10.722;2022-11-13T17:59:57;40.67;;;26.17;;
14251;SDS011;7210;51.502;10.722;2022-11-13T18:02:44;36.17;;;25.10;;
14251;SDS011;7210;51.502;10.722;2022-11-13T18:05:30;42.20;;;25.30;;
14251;SDS011;7210;51.502;10.722;2022-11-13T18:08:19;44.33;;;27.70;;